Time;durP1;ratioP1;P1;durP2;ratioP2;P2;SDS_P1;SDS_P2;PMS_P1;PMS_P2;Temp;Humidity;BMP_temperature;BMP_pressure;BME280_temperature;BME280_humidity;BME280_pressure;Samples;Min_cycle;Max_cycle;Signal;HPM_P1;HPM_P2
2022/02/24 17:03:47;;;;;;;3.78;0.80;;;5.30;69.60;;;;;;5070417;28;20862;-51
2022/02/24 17:06:14;;;;;;;2.88;0.80;;;5.20;66.90;;;;;;5053287;28;20041;-48
2022/02/24 17:08:41;;;;;;;5.03;1.10;;;5.30;66.20;;;;;;5049316;28;20041;-47
2022/02/24 17:11:08;;;;;;;3.90;0.90;;;5.30;64.20;;;;;;5050463;28;20388;-49
2022/02/24 17:13:35;;;;;;;2.17;0.82;;;5.30;65.50;;;;;;5055651;28;20041;-44
2022/02/24 17:16:02;;;;;;;3.00;1.30;;;5.20;64.20;;;;;;5050392;28;20598;-47
2022/02/24 17:18:28;;;;;;;6.10;1.02;;;5.20;66.30;;;;;;5050061;28;20064;-51
2022/02/24 17:20:57;;;;;;;3.33;1.08;;;5.10;67.40;;;;;;5055537;28;20044;-48
2022/02/24 17:23:24;;;;;;;4.47;1.00;;;5.10;67.50;;;;;;5050170;28;20050;-51
2022/02/24 17:25:51;;;;;;;2.63;1.08;;;5.10;68.00;;;;;;5050122;28;20037;-45
2022/02/24 17:28:17;;;;;;;3.15;0.82;;;5.10;66.80;;;;;;5048223;28;20029;-43
2022/02/24 17:30:46;;;;;;;3.67;1.00;;;5.00;68.80;;;;;;5049475;28;20044;-46
2022/02/24 17:33:13;;;;;;;5.05;0.93;;;5.00;68.10;;;;;;5048951;28;20129;-47
2022/02/24 17:35:41;;;;;;;2.72;1.10;;;4.90;67.80;;;;;;5049900;28;21035;-47
2022/02/24 17:38:08;;;;;;;3.88;1.33;;;5.00;67.10;;;;;;5050124;28;20046;-45
2022/02/24 17:40:36;;;;;;;3.25;0.95;;;5.00;68.00;;;;;;5049751;28;20044;-52
2022/02/24 17:43:03;;;;;;;3.30;0.90;;;4.90;68.70;;;;;;5055800;28;20048;-43
2022/02/24 17:45:29;;;;;;;6.15;0.82;;;4.90;69.80;;;;;;5049667;28;20049;-49
2022/02/24 17:47:56;;;;;;;3.95;1.10;;;4.90;69.70;;;;;;5049781;28;20499;-52
2022/02/24 17:50:23;;;;;;;3.60;1.08;;;4.80;70.00;;;;;;5049744;28;20048;-50
2022/02/24 17:52:52;;;;;;;4.50;1.38;;;4.80;69.30;;;;;;5048836;28;20432;-51
2022/02/24 17:55:18;;;;;;;5.40;1.48;;;4.80;70.70;;;;;;5047648;28;20498;-51
2022/02/24 17:57:45;;;;;;;5.05;1.20;;;4.80;71.50;;;;;;5048135;28;20045;-53
2022/02/24 18:00:12;;;;;;;5.25;1.55;;;4.80;72.30;;;;;;5053400;28;20120;-50
2022/02/24 18:02:39;;;;;;;5.05;1.20;;;4.70;70.40;;;;;;5053820;28;20049;-48
2022/02/24 18:05:06;;;;;;;5.78;1.35;;;4.70;72.30;;;;;;5049134;28;20081;-51
2022/02/24 18:07:33;;;;;;;6.55;2.47;;;4.60;72.40;;;;;;5053110;28;20095;-51
2022/02/24 18:10:00;;;;;;;4.35;1.23;;;4.60;72.10;;;;;;5048918;28;20045;-50
2022/02/24 18:12:26;;;;;;;4.55;1.65;;;4.50;72.30;;;;;;5049190;28;20045;-47
2022/02/24 18:14:53;;;;;;;4.47;1.20;;;4.50;72.30;;;;;;5037137;28;20048;-47
2022/02/24 18:17:21;;;;;;;3.58;1.35;;;4.50;71.50;;;;;;5034747;28;20057;-51
2022/02/24 18:19:49;;;;;;;5.07;1.58;;;4.50;71.70;;;;;;5030699;28;20378;-51
2022/02/24 18:22:16;;;;;;;5.03;1.55;;;4.50;72.40;;;;;;5035534;28;20044;-45
2022/02/24 18:24:42;;;;;;;5.43;1.33;;;4.50;72.10;;;;;;5035333;28;20040;-51
2022/02/24 18:27:09;;;;;;;3.47;1.05;;;4.50;70.50;;;;;;5035377;28;20443;-49
2022/02/24 18:29:36;;;;;;;3.97;1.63;;;4.50;71.40;;;;;;5035358;28;20041;-52
2022/02/24 18:32:03;;;;;;;4.28;1.23;;;4.50;71.20;;;;;;5030948;28;20045;-48
2022/02/24 18:34:29;;;;;;;5.35;1.20;;;4.50;71.60;;;;;;5035539;28;20502;-49
2022/02/24 18:36:56;;;;;;;4.80;1.10;;;4.50;72.30;;;;;;5035193;28;20103;-47
2022/02/24 18:39:23;;;;;;;6.38;1.95;;;4.50;71.10;;;;;;5034986;28;20048;-49
2022/02/24 18:41:50;;;;;;;8.38;1.50;;;4.40;73.10;;;;;;5035191;28;20037;-50
2022/02/24 18:44:17;;;;;;;4.85;1.10;;;4.40;73.10;;;;;;5035550;28;20330;-48
2022/02/24 18:46:44;;;;;;;5.68;1.30;;;4.40;72.80;;;;;;5028627;28;20041;-47
2022/02/24 18:49:12;;;;;;;6.03;1.30;;;4.40;73.40;;;;;;5028655;28;20053;-48
2022/02/24 18:51:38;;;;;;;7.38;2.00;;;4.40;72.40;;;;;;5028599;28;20037;-50
2022/02/24 18:54:07;;;;;;;7.05;1.33;;;4.30;73.00;;;;;;5034782;28;20041;-51
2022/02/24 18:56:34;;;;;;;5.95;1.88;;;4.30;74.30;;;;;;5034741;28;20488;-45
2022/02/24 18:59:01;;;;;;;7.15;2.03;;;4.30;74.10;;;;;;5035265;28;20057;-49
2022/02/24 19:01:27;;;;;;;6.72;1.55;;;4.30;75.70;;;;;;5035202;28;20053;-48
2022/02/24 19:03:55;;;;;;;6.72;1.65;;;4.20;75.70;;;;;;5038356;28;20110;-48
2022/02/24 19:06:29;;;;;;;5.88;1.85;;;4.20;77.00;;;;;;5035135;28;20048;-50
2022/02/24 19:08:56;;;;;;;5.07;1.70;;;4.10;75.90;;;;;;5035283;28;20045;-47
2022/02/24 19:11:24;;;;;;;20.63;9.48;;;4.10;77.80;;;;;;5036135;28;20033;-47
2022/02/24 19:13:52;;;;;;;6.35;2.92;;;4.00;78.00;;;;;;5034947;28;20404;-49
2022/02/24 19:16:19;;;;;;;4.90;1.90;;;4.00;78.60;;;;;;5034936;28;20065;-43
2022/02/24 19:18:46;;;;;;;6.53;1.90;;;4.00;79.40;;;;;;5035090;28;20135;-50
2022/02/24 19:21:13;;;;;;;6.95;2.35;;;3.90;80.70;;;;;;5028300;28;20048;-47
2022/02/24 19:23:41;;;;;;;8.18;1.80;;;3.90;81.00;;;;;;5034767;28;20068;-47
2022/02/24 19:26:07;;;;;;;4.80;2.33;;;3.90;81.70;;;;;;5027265;28;20065;-44
2022/02/24 19:28:34;;;;;;;9.07;2.67;;;3.90;82.50;;;;;;5034605;28;20037;-46
2022/02/24 19:31:07;;;;;;;6.90;2.22;;;3.90;82.80;;;;;;5039630;28;20100;-46
2022/02/24 19:33:34;;;;;;;7.15;2.30;;;3.90;83.90;;;;;;5033967;28;20409;-47
2022/02/24 19:36:00;;;;;;;8.70;1.98;;;3.90;83.90;;;;;;5037767;28;20079;-44
2022/02/24 19:38:27;;;;;;;11.23;3.42;;;3.90;83.80;;;;;;5027281;28;20037;-45
2022/02/24 19:40:54;;;;;;;10.70;2.55;;;3.90;85.00;;;;;;5027362;28;20045;-46
2022/02/24 19:43:21;;;;;;;9.07;2.33;;;3.90;84.30;;;;;;5033006;28;20046;-51
2022/02/24 19:45:47;;;;;;;6.88;2.08;;;3.90;84.50;;;;;;5033963;28;20516;-50
2022/02/24 19:48:14;;;;;;;11.40;2.30;;;3.90;85.20;;;;;;5039030;28;20037;-50
2022/02/24 19:50:41;;;;;;;13.98;2.58;;;3.90;85.10;;;;;;5033989;28;20048;-48
2022/02/24 19:53:08;;;;;;;12.85;2.35;;;3.90;85.00;;;;;;5034140;28;20054;-49
2022/02/24 19:55:35;;;;;;;8.15;2.58;;;3.80;85.60;;;;;;5033834;28;20049;-47
2022/02/24 19:58:04;;;;;;;17.17;2.50;;;3.80;85.50;;;;;;5033610;28;20050;-45
2022/02/24 20:00:30;;;;;;;10.48;2.22;;;3.80;85.60;;;;;;5033540;28;20049;-50
2022/02/24 20:02:57;;;;;;;10.82;2.30;;;3.80;86.20;;;;;;5033393;28;20096;-44
2022/02/24 20:05:27;;;;;;;13.65;2.70;;;3.80;86.40;;;;;;5035234;28;20558;-46
2022/02/24 20:07:54;;;;;;;13.35;2.20;;;3.80;86.40;;;;;;5033849;28;20396;-42
2022/02/24 20:10:21;;;;;;;7.15;2.10;;;3.80;86.80;;;;;;5033310;28;20132;-45
2022/02/24 20:12:48;;;;;;;10.85;2.63;;;3.80;86.90;;;;;;5033639;28;20595;-50
2022/02/24 20:15:15;;;;;;;15.05;2.40;;;3.80;87.00;;;;;;5032024;28;20568;-52
2022/02/24 20:17:44;;;;;;;11.07;2.47;;;3.70;87.10;;;;;;5033315;28;20041;-52
2022/02/24 20:20:11;;;;;;;10.07;2.30;;;3.70;87.70;;;;;;5033207;28;20092;-49
2022/02/24 20:22:38;;;;;;;16.38;2.72;;;3.70;87.90;;;;;;5033254;28;20060;-50
2022/02/24 20:25:04;;;;;;;11.05;3.03;;;3.70;87.90;;;;;;5035723;28;20045;-53
2022/02/24 20:27:31;;;;;;;9.45;2.33;;;3.70;88.00;;;;;;5031177;28;20499;-51
2022/02/24 20:29:58;;;;;;;15.10;2.45;;;3.70;88.00;;;;;;5031760;28;20393;-53
2022/02/24 20:32:25;;;;;;;8.25;2.55;;;3.60;88.20;;;;;;5033694;28;20049;-50
2022/02/24 20:34:52;;;;;;;11.63;2.55;;;3.60;88.80;;;;;;5033134;28;20043;-49
2022/02/24 20:37:19;;;;;;;11.50;2.60;;;3.60;88.80;;;;;;5032875;28;20041;-48
2022/02/24 20:39:48;;;;;;;13.02;2.53;;;3.60;89.20;;;;;;5032832;28;20041;-47
2022/02/24 20:42:31;;;;;;;9.77;2.65;;;3.60;89.40;;;;;;5032946;28;20084;-53
2022/02/24 20:44:58;;;;;;;10.95;2.80;;;3.60;89.50;;;;;;5032952;28;20038;-52
2022/02/24 20:47:26;;;;;;;11.57;2.72;;;3.60;89.50;;;;;;5033095;28;20477;-45
2022/02/24 20:49:53;;;;;;;15.55;2.80;;;3.60;89.10;;;;;;5032950;28;20041;-49
2022/02/24 20:52:20;;;;;;;10.32;2.38;;;3.60;89.30;;;;;;5032964;28;20048;-48
2022/02/24 20:54:47;;;;;;;11.23;2.90;;;3.60;89.40;;;;;;5032934;28;20042;-46
2022/02/24 20:57:20;;;;;;;10.45;2.97;;;3.60;89.50;;;;;;5032624;28;20477;-57
2022/02/24 20:59:48;;;;;;;18.00;2.75;;;3.60;89.40;;;;;;5030969;28;20072;-50
2022/02/24 21:02:14;;;;;;;8.55;3.22;;;3.50;89.30;;;;;;5031922;28;20113;-46
2022/02/24 21:04:41;;;;;;;12.70;2.85;;;3.50;89.60;;;;;;5034991;28;20052;-47
2022/02/24 21:07:08;;;;;;;12.23;2.58;;;3.50;89.30;;;;;;5032814;28;20052;-51
2022/02/24 21:09:35;;;;;;;12.57;2.90;;;3.50;89.50;;;;;;5032331;28;20045;-46
2022/02/24 21:12:02;;;;;;;10.07;2.97;;;3.50;89.70;;;;;;5032848;28;20047;-51
2022/02/24 21:14:31;;;;;;;11.88;4.47;;;3.50;89.80;;;;;;5032533;28;20053;-48
2022/02/24 21:16:58;;;;;;;18.55;3.33;;;3.40;90.00;;;;;;5032842;28;20042;-55
2022/02/24 21:19:24;;;;;;;13.77;3.50;;;3.40;90.00;;;;;;5036516;28;20052;-48
2022/02/24 21:21:51;;;;;;;13.48;4.88;;;3.40;89.90;;;;;;5032659;28;20049;-48
2022/02/24 21:24:18;;;;;;;17.42;5.45;;;3.40;90.10;;;;;;5030179;28;20033;-49
2022/02/24 21:26:45;;;;;;;22.48;8.25;;;3.30;90.10;;;;;;5032924;28;20044;-51
2022/02/24 21:29:12;;;;;;;28.17;13.27;;;3.40;90.20;;;;;;5032403;28;20044;-53
2022/02/24 21:31:38;;;;;;;24.60;10.50;;;3.30;90.30;;;;;;5032764;28;20041;-45
2022/02/24 21:34:05;;;;;;;17.48;4.22;;;3.30;90.40;;;;;;5035222;28;20075;-46
2022/02/24 21:36:32;;;;;;;16.63;4.70;;;3.30;90.40;;;;;;5032325;28;20046;-49
2022/02/24 21:38:59;;;;;;;13.98;3.00;;;3.30;90.50;;;;;;5031688;28;20455;-58
2022/02/24 21:41:26;;;;;;;17.20;5.47;;;3.30;90.60;;;;;;5032013;28;20041;-51
2022/02/24 21:43:53;;;;;;;11.63;3.03;;;3.30;90.60;;;;;;5036938;28;20097;-47
2022/02/24 21:46:20;;;;;;;12.25;3.30;;;3.30;90.40;;;;;;5032393;28;20124;-45
2022/02/24 21:48:47;;;;;;;13.00;3.28;;;3.30;90.40;;;;;;5026743;28;20454;-50
2022/02/24 21:51:15;;;;;;;11.65;2.45;;;3.30;90.50;;;;;;5036219;28;20048;-49
2022/02/24 21:53:41;;;;;;;10.77;2.30;;;3.30;90.40;;;;;;5036570;28;20048;-45
2022/02/24 21:56:08;;;;;;;15.95;2.97;;;3.30;90.30;;;;;;5036272;28;20045;-51
2022/02/24 21:58:35;;;;;;;11.70;2.42;;;3.30;90.30;;;;;;5036210;28;20056;-49
2022/02/24 22:01:02;;;;;;;12.70;2.72;;;3.30;90.10;;;;;;5034870;28;20421;-52
2022/02/24 22:03:30;;;;;;;13.05;2.60;;;3.30;90.30;;;;;;5035876;28;20080;-46
2022/02/24 22:05:57;;;;;;;18.42;3.45;;;3.30;90.20;;;;;;5035509;28;20052;-49
2022/02/24 22:08:24;;;;;;;17.60;3.33;;;3.30;90.30;;;;;;5036083;28;20550;-51
2022/02/24 22:10:51;;;;;;;17.33;2.58;;;3.30;90.40;;;;;;5036145;28;20040;-50
2022/02/24 22:13:17;;;;;;;11.93;2.60;;;3.30;90.20;;;;;;5035741;28;20056;-49
2022/02/24 22:15:44;;;;;;;11.48;2.20;;;3.30;90.40;;;;;;5038268;28;20049;-52
2022/02/24 22:18:11;;;;;;;20.80;3.10;;;3.30;90.40;;;;;;5035913;28;20037;-51
2022/02/24 22:20:38;;;;;;;11.60;2.60;;;3.30;90.20;;;;;;5036139;28;20045;-48
2022/02/24 22:23:05;;;;;;;15.35;2.50;;;3.30;90.30;;;;;;5035822;28;20049;-50
2022/02/24 22:25:32;;;;;;;17.85;3.25;;;3.40;90.60;;;;;;5038258;28;20041;-52
2022/02/24 22:27:58;;;;;;;13.68;2.70;;;3.30;90.20;;;;;;5035686;28;20033;-51
2022/02/24 22:30:25;;;;;;;21.13;3.03;;;3.40;90.20;;;;;;5035618;28;20037;-51
2022/02/24 22:32:52;;;;;;;11.05;2.15;;;3.40;90.20;;;;;;5039301;28;20108;-51
2022/02/24 22:35:19;;;;;;;11.15;2.45;;;3.40;90.10;;;;;;5035644;28;20507;-47
2022/02/24 22:37:46;;;;;;;13.65;2.45;;;3.40;89.90;;;;;;5035725;28;20164;-48
2022/02/24 22:40:13;;;;;;;15.45;2.60;;;3.40;90.00;;;;;;5035540;28;20049;-52
2022/02/24 22:42:40;;;;;;;12.60;2.72;;;3.40;89.90;;;;;;5035696;28;20041;-47
2022/02/24 22:45:06;;;;;;;15.13;2.85;;;3.50;90.10;;;;;;5035449;28;20115;-51
2022/02/24 22:47:33;;;;;;;12.25;2.63;;;3.50;90.00;;;;;;5035438;28;20045;-46
2022/02/24 22:50:01;;;;;;;13.75;2.97;;;3.50;89.90;;;;;;5035439;28;20073;-47
2022/02/24 22:52:28;;;;;;;13.00;2.20;;;3.50;89.70;;;;;;5035460;28;20061;-46
2022/02/24 22:54:55;;;;;;;6.35;2.03;;;3.50;90.00;;;;;;5035344;28;20046;-54
2022/02/24 22:57:23;;;;;;;13.15;2.17;;;3.50;89.80;;;;;;5037519;28;20072;-45
2022/02/24 22:59:50;;;;;;;10.88;2.15;;;3.50;89.60;;;;;;5035167;28;20484;-48
2022/02/24 23:02:18;;;;;;;9.88;2.60;;;3.50;90.00;;;;;;5034897;28;20049;-52
2022/02/24 23:07:31;;;;;;;12.57;2.35;;;3.50;90.00;;;;;;5035391;28;20049;-51
2022/02/24 23:09:57;;;;;;;11.07;1.95;;;3.50;89.60;;;;;;5033773;28;20108;-53
2022/02/24 23:12:27;;;;;;;17.38;2.35;;;3.50;89.70;;;;;;5034917;28;20095;-45
2022/02/24 23:14:54;;;;;;;15.70;2.40;;;3.50;89.70;;;;;;5034851;28;20045;-54
2022/02/24 23:17:21;;;;;;;10.68;2.80;;;3.50;89.30;;;;;;5039149;28;20399;-48
2022/02/24 23:19:48;;;;;;;13.05;2.45;;;3.50;89.70;;;;;;5034901;28;20042;-52
2022/02/24 23:22:15;;;;;;;9.85;2.15;;;3.50;89.30;;;;;;5036903;28;20064;-51
2022/02/24 23:24:42;;;;;;;11.88;2.10;;;3.50;89.20;;;;;;5037360;28;20128;-50
2022/02/24 23:27:08;;;;;;;16.42;2.40;;;3.50;89.30;;;;;;5034603;28;20048;-48
2022/02/24 23:29:35;;;;;;;14.98;2.92;;;3.50;89.50;;;;;;5037046;28;20052;-48
2022/02/24 23:32:02;;;;;;;13.38;2.75;;;3.50;89.10;;;;;;5034626;28;20065;-52
2022/02/24 23:34:29;;;;;;;11.88;2.20;;;3.50;89.30;;;;;;5031136;28;20051;-51
2022/02/24 23:36:56;;;;;;;7.30;1.70;;;3.50;89.30;;;;;;5033172;28;20053;-45
2022/02/24 23:39:24;;;;;;;17.50;2.25;;;3.50;89.00;;;;;;5016064;28;20099;-52
2022/02/24 23:41:51;;;;;;;9.88;2.00;;;3.50;88.90;;;;;;5039346;28;20041;-50
2022/02/24 23:44:17;;;;;;;12.27;2.65;;;3.50;89.10;;;;;;5034216;28;20575;-51
2022/02/24 23:46:44;;;;;;;10.32;2.13;;;3.50;89.50;;;;;;5033764;28;20124;-48
